Time;durP1;ratioP1;P1;durP2;ratioP2;P2;SDS_P1;SDS_P2;PMS_P1;PMS_P2;Temp;Humidity;BMP_temperature;BMP_pressure;BME280_temperature;BME280_humidity;BME280_pressure;Samples;Min_cycle;Max_cycle;Signal;HPM_P1;HPM_P2
2023/02/24 00:01:58;;;;;;;24.08;8.18;;;;;;;5.91;100.00;101497.78;5116694;28;20043;-65
2023/02/24 00:04:28;;;;;;;25.08;6.95;;;;;;;5.88;100.00;101498.22;5118621;27;20541;-65
2023/02/24 00:06:56;;;;;;;20.65;5.97;;;;;;;5.85;100.00;101492.44;5081005;28;20040;-65
2023/02/24 00:09:26;;;;;;;20.10;5.80;;;;;;;5.84;100.00;101490.75;5095225;28;20119;-64
2023/02/24 00:11:58;;;;;;;27.17;6.28;;;;;;;5.84;100.00;101488.88;5095449;28;20170;-65
2023/02/24 00:14:30;;;;;;;26.58;6.57;;;;;;;5.83;100.00;101495.34;5096523;27;20047;-64
2023/02/24 00:16:58;;;;;;;26.50;6.30;;;;;;;5.83;100.00;101489.94;5097444;27;20039;-63
2023/02/24 00:19:31;;;;;;;23.70;5.70;;;;;;;5.81;100.00;101485.81;5094929;28;20055;-63
2023/02/24 00:22:00;;;;;;;24.17;6.10;;;;;;;5.84;100.00;101488.06;5112501;28;20047;-63
2023/02/24 00:24:28;;;;;;;23.98;6.53;;;;;;;5.81;100.00;101486.63;5114434;28;20040;-63
2023/02/24 00:26:58;;;;;;;19.67;6.25;;;;;;;5.80;100.00;101479.56;5116478;27;20126;-63
2023/02/24 00:29:28;;;;;;;20.70;5.60;;;;;;;5.78;100.00;101486.25;5117704;28;20152;-63
2023/02/24 00:32:01;;;;;;;26.65;6.97;;;;;;;5.76;100.00;101472.94;5117517;28;20048;-64
2023/02/24 00:34:30;;;;;;;22.08;6.53;;;;;;;5.74;100.00;101475.03;5122377;28;20112;-63
2023/02/24 00:36:58;;;;;;;20.65;6.15;;;;;;;5.72;100.00;101474.41;5112477;28;20092;-63
2023/02/24 00:39:32;;;;;;;22.85;6.50;;;;;;;5.69;100.00;101472.97;5103831;28;20062;-65
2023/02/24 00:42:03;;;;;;;22.00;6.38;;;;;;;5.69;100.00;101480.28;5116057;28;20048;-63
2023/02/24 00:44:33;;;;;;;21.23;6.65;;;;;;;5.69;100.00;101472.16;5093503;28;20067;-63
2023/02/24 00:47:01;;;;;;;20.40;6.32;;;;;;;5.69;100.00;101472.97;5104243;28;20035;-62
2023/02/24 00:49:29;;;;;;;21.63;6.28;;;;;;;5.69;100.00;101464.06;5111220;28;20051;-64
2023/02/24 00:51:57;;;;;;;19.08;6.00;;;;;;;5.72;100.00;101466.31;5114437;28;20386;-63
2023/02/24 00:54:27;;;;;;;24.42;6.47;;;;;;;5.72;100.00;101463.59;5112814;28;20047;-62
2023/02/24 00:56:55;;;;;;;19.30;5.88;;;;;;;5.71;100.00;101470.06;5112557;28;20047;-63
2023/02/24 00:59:24;;;;;;;22.05;5.70;;;;;;;5.72;100.00;101463.59;5103043;28;20048;-64
2023/02/24 01:01:53;;;;;;;23.77;6.05;;;;;;;5.71;100.00;101453.84;5095092;28;20047;-63
2023/02/24 01:04:21;;;;;;;22.90;5.80;;;;;;;5.71;100.00;101453.84;5096274;28;20049;-64
2023/02/24 01:06:51;;;;;;;23.80;6.30;;;;;;;5.69;100.00;101458.66;5113623;27;20104;-64
2023/02/24 01:09:19;;;;;;;21.15;5.63;;;;;;;5.70;100.00;101452.19;5095590;28;20044;-66
2023/02/24 01:14:35;;;;;;;23.75;6.38;;;;;;;5.75;100.00;101428.84;5093318;28;20148;-63
2023/02/24 01:17:07;;;;;;;23.65;6.65;;;;;;;5.76;100.00;101427.78;5092697;28;20043;-64
2023/02/24 01:19:35;;;;;;;21.98;6.35;;;;;;;5.78;100.00;101427.59;5075921;28;20059;-63
2023/02/24 01:22:08;;;;;;;18.35;5.55;;;;;;;5.76;100.00;101421.56;5110912;28;20100;-66
2023/02/24 01:24:38;;;;;;;17.33;5.88;;;;;;;5.76;100.00;101416.16;5092380;28;20060;-63
2023/02/24 01:27:07;;;;;;;21.13;6.57;;;;;;;5.75;100.00;101417.22;5076401;28;20063;-63
2023/02/24 01:29:38;;;;;;;23.40;7.47;;;;;;;5.73;100.00;101416.59;5058369;28;20056;-64
2023/02/24 01:32:17;;;;;;;17.67;5.72;;;;;;;5.72;100.00;101412.22;5092253;28;20101;-64
2023/02/24 01:34:46;;;;;;;20.15;6.10;;;;;;;5.72;100.00;101418.50;5106951;27;20072;-64
2023/02/24 01:37:18;;;;;;;18.83;6.10;;;;;;;5.76;100.00;101405.34;5075252;28;20123;-67
2023/02/24 01:39:46;;;;;;;19.23;5.60;;;;;;;5.76;100.00;101408.88;5094430;28;20440;-65
2023/02/24 01:42:18;;;;;;;18.52;5.75;;;;;;;5.76;100.00;101405.34;5075326;28;20097;-67
2023/02/24 01:44:46;;;;;;;17.13;5.40;;;;;;;5.77;100.00;101401.56;5091784;28;20098;-66
2023/02/24 01:47:19;;;;;;;21.38;5.63;;;;;;;5.75;100.00;101396.41;5125771;27;20369;-65
2023/02/24 01:49:50;;;;;;;18.20;5.50;;;;;;;5.75;100.00;101388.31;5094309;28;20097;-65
2023/02/24 01:52:23;;;;;;;25.35;5.95;;;;;;;5.75;100.00;101382.06;5093185;28;20146;-65
2023/02/24 01:55:09;;;;;;;18.35;6.25;;;;;;;5.73;100.00;101382.28;5076378;28;20040;-66
2023/02/24 01:57:38;;;;;;;21.27;5.75;;;;;;;5.71;100.00;101372.75;5093619;28;20446;-68
2023/02/24 02:00:18;;;;;;;18.20;5.85;;;;;;;5.71;100.00;101367.34;5075573;28;20047;-64
2023/02/24 02:02:51;;;;;;;23.15;6.10;;;;;;;5.65;100.00;101368.22;5093602;28;20484;-65
2023/02/24 02:05:20;;;;;;;18.30;5.03;;;;;;;5.65;100.00;101358.25;5091030;28;20372;-64
2023/02/24 02:07:49;;;;;;;15.85;5.25;;;;;;;5.66;100.00;101357.19;5092144;28;20093;-66
2023/02/24 02:10:17;;;;;;;16.50;5.18;;;;;;;5.64;100.00;101339.53;5093515;28;20399;-62
2023/02/24 02:12:45;;;;;;;21.80;6.15;;;;;;;5.61;100.00;101340.81;5075607;28;20051;-62
2023/02/24 02:15:15;;;;;;;17.92;5.22;;;;;;;5.60;100.00;101335.59;5093209;28;20419;-62
2023/02/24 02:18:02;;;;;;;15.40;5.13;;;;;;;5.56;100.00;101327.13;5106882;28;20390;-63
2023/02/24 02:20:52;;;;;;;19.42;5.47;;;;;;;5.54;100.00;101327.34;5102397;28;20075;-63
2023/02/24 02:23:40;;;;;;;22.55;5.68;;;;;;;5.52;100.00;101315.91;5095438;28;20062;-65
2023/02/24 02:26:31;;;;;;;17.10;5.03;;;;;;;5.51;100.00;101308.88;5092457;28;20492;-63
2023/02/24 02:29:30;;;;;;;20.55;5.40;;;;;;;5.51;100.00;101305.34;5076597;28;20098;-65
2023/02/24 02:32:30;;;;;;;22.30;5.47;;;;;;;5.52;100.00;101304.28;5093384;28;20040;-64
2023/02/24 02:35:12;;;;;;;17.67;5.00;;;;;;;5.49;99.87;101305.56;5093406;28;20512;-68
2023/02/24 02:38:02;;;;;;;17.30;5.45;;;;;;;5.47;99.96;101304.97;5093675;28;20056;-64
2023/02/24 02:41:00;;;;;;;13.23;4.95;;;;;;;5.46;100.00;101297.06;5092835;28;20048;-64
2023/02/24 02:43:34;;;;;;;19.70;5.57;;;;;;;5.45;100.00;101293.53;5093900;28;20492;-64
2023/02/24 02:46:16;;;;;;;14.27;5.03;;;;;;;5.46;100.00;101295.22;5099203;28;20040;-65
2023/02/24 02:48:56;;;;;;;21.25;5.45;;;;;;;5.49;100.00;101291.22;5085211;28;20123;-64
2023/02/24 02:51:28;;;;;;;19.65;4.95;;;;;;;5.44;99.44;101283.78;5099395;28;20508;-65
2023/02/24 02:54:01;;;;;;;15.48;4.93;;;;;;;5.42;99.37;101277.78;5083880;28;20476;-64
2023/02/24 02:56:30;;;;;;;17.17;4.97;;;;;;;5.41;99.06;101276.13;5119135;28;20051;-63
2023/02/24 02:58:59;;;;;;;18.05;5.63;;;;;;;5.37;99.11;101280.31;5101662;28;20044;-64
2023/02/24 03:01:30;;;;;;;17.48;5.40;;;;;;;5.34;98.96;101284.28;5086491;28;20408;-64
2023/02/24 03:04:03;;;;;;;18.00;5.15;;;;;;;5.33;98.72;101273.69;5066989;27;20043;-64
2023/02/24 03:06:43;;;;;;;16.67;5.15;;;;;;;5.29;98.68;101273.34;5121601;27;20054;-63
2023/02/24 03:09:19;;;;;;;15.85;5.30;;;;;;;5.28;98.68;101265.44;5083846;28;20571;-64
2023/02/24 03:11:58;;;;;;;16.02;5.13;;;;;;;5.24;98.88;101272.31;5099721;28;20046;-63
2023/02/24 03:14:36;;;;;;;18.70;5.00;;;;;;;5.21;98.69;101264.66;5097961;28;20044;-65
2023/02/24 03:17:08;;;;;;;16.23;5.25;;;;;;;5.16;98.62;101261.81;5096800;28;20048;-64
2023/02/24 03:19:38;;;;;;;15.93;4.75;;;;;;;5.15;98.28;101260.13;5102147;28;20059;-69
2023/02/24 03:22:24;;;;;;;19.80;4.85;;;;;;;5.13;98.26;101260.38;5083592;28;20036;-63
2023/02/24 03:24:54;;;;;;;17.70;5.55;;;;;;;5.12;98.46;101256.84;5102731;28;20044;-66
2023/02/24 03:27:55;;;;;;;20.25;5.95;;;;;;;5.13;98.63;101250.41;5111855;27;20099;-65
2023/02/24 03:30:43;;;;;;;14.60;5.20;;;;;;;5.13;98.10;101242.28;5112133;28;20062;-63
2023/02/24 03:33:31;;;;;;;17.95;5.65;;;;;;;5.17;98.18;101247.25;5095166;28;20040;-62
2023/02/24 03:36:00;;;;;;;18.58;5.45;;;;;;;5.16;97.71;101235.63;5093618;28;20499;-64
2023/02/24 03:38:31;;;;;;;18.65;5.10;;;;;;;5.16;97.31;101234.78;5114412;27;20059;-62
2023/02/24 03:40:59;;;;;;;15.70;5.22;;;;;;;5.13;97.44;101231.50;5115163;28;20054;-62
2023/02/24 03:43:32;;;;;;;15.65;4.80;;;;;;;5.15;97.23;101233.97;5081819;28;20096;-65
2023/02/24 03:46:01;;;;;;;15.05;5.25;;;;;;;5.12;97.07;101229.84;5086791;28;20098;-63
2023/02/24 03:48:30;;;;;;;18.13;5.70;;;;;;;5.11;97.09;101228.19;5085024;28;20090;-63
2023/02/24 03:50:59;;;;;;;19.38;5.00;;;;;;;5.09;97.34;101219.47;5077909;28;20051;-65
2023/02/24 03:53:57;;;;;;;15.85;5.20;;;;;;;5.09;97.06;101215.94;5103642;28;20131;-65
2023/02/24 03:56:28;;;;;;;17.20;5.05;;;;;;;5.06;97.05;101221.81;5098125;28;20043;-62
2023/02/24 03:59:06;;;;;;;18.15;5.20;;;;;;;5.01;96.67;101225.16;5114579;28;20055;-65
2023/02/24 04:02:02;;;;;;;18.92;5.30;;;;;;;5.00;97.10;101215.38;5113290;27;20044;-62
2023/02/24 04:04:56;;;;;;;14.75;4.95;;;;;;;5.02;96.99;101218.69;5097450;28;20062;-63
2023/02/24 04:07:37;;;;;;;18.45;5.10;;;;;;;5.04;96.63;101207.69;5114798;28;20046;-63
2023/02/24 04:10:22;;;;;;;14.30;4.88;;;;;;;5.02;96.01;101209.78;5103220;28;20048;-63
2023/02/24 04:13:09;;;;;;;16.55;4.70;;;;;;;5.01;95.55;101206.25;5080743;28;20120;-65
2023/02/24 04:15:47;;;;;;;20.15;5.57;;;;;;;5.01;95.35;101210.84;5077537;28;20060;-66
2023/02/24 04:18:20;;;;;;;15.82;5.75;;;;;;;5.00;95.12;101210.00;5077876;28;20046;-64
2023/02/24 04:20:49;;;;;;;20.00;5.53;;;;;;;4.99;94.63;101202.94;5070637;28;20044;-63
2023/02/24 04:23:23;;;;;;;18.98;5.32;;;;;;;4.99;94.40;101207.53;5083474;28;20044;-63
2023/02/24 04:25:55;;;;;;;15.55;5.03;;;;;;;4.99;94.14;101204.81;5111065;28;20425;-63
2023/02/24 04:28:24;;;;;;;16.63;5.00;;;;;;;4.99;93.96;101200.25;5114422;28;20116;-63
2023/02/24 04:31:08;;;;;;;12.38;4.72;;;;;;;4.99;93.58;101197.53;5080625;28;20063;-61
2023/02/24 04:33:38;;;;;;;18.95;4.93;;;;;;;4.98;93.45;101190.50;5100636;28;20149;-63
2023/02/24 04:36:07;;;;;;;15.15;4.90;;;;;;;4.98;93.42;101198.59;5077081;28;20048;-62
2023/02/24 04:38:38;;;;;;;15.32;4.68;;;;;;;4.96;93.16;101200.69;5106856;27;20075;-63
2023/02/24 04:41:06;;;;;;;17.27;4.78;;;;;;;4.95;93.08;101200.91;5114088;28;20044;-63
2023/02/24 04:43:34;;;;;;;15.52;5.30;;;;;;;4.92;92.49;101204.88;5098853;28;20115;-63
2023/02/24 04:46:06;;;;;;;17.83;5.03;;;;;;;4.88;92.51;101191.00;5076793;28;20056;-63
2023/02/24 04:48:34;;;;;;;12.90;4.63;;;;;;;4.88;92.47;101179.34;5094635;28;20430;-63
2023/02/24 04:51:05;;;;;;;15.52;4.78;;;;;;;4.89;92.40;101175.63;5098911;27;20048;-63
2023/02/24 04:53:33;;;;;;;20.70;4.80;;;;;;;4.88;92.31;101174.81;5107727;28;20122;-64
2023/02/24 04:56:08;;;;;;;17.02;4.60;;;;;;;4.88;92.24;101168.56;5115025;28;20061;-60
2023/02/24 04:58:38;;;;;;;12.43;4.20;;;;;;;4.87;92.11;101172.31;5113562;28;20115;-63
2023/02/24 05:01:09;;;;;;;12.40;4.28;;;;;;;4.88;92.17;101163.16;5111762;27;20483;-65
2023/02/24 05:03:40;;;;;;;13.18;4.05;;;;;;;4.88;91.89;101168.56;5110493;28;20051;-62
2023/02/24 05:06:14;;;;;;;12.93;3.92;;;;;;;4.90;91.76;101155.66;5112986;28;20054;-63
2023/02/24 05:08:43;;;;;;;17.17;5.05;;;;;;;4.91;91.79;101151.94;5111457;28;20142;-62
2023/02/24 05:11:14;;;;;;;14.93;4.85;;;;;;;4.80;91.73;101153.47;5095410;27;20048;-64
2023/02/24 05:13:46;;;;;;;17.83;4.82;;;;;;;4.69;92.49;101146.94;5110482;28;20061;-64
2023/02/24 05:16:16;;;;;;;15.45;4.72;;;;;;;4.65;92.46;101145.72;5112896;28;20051;-65
2023/02/24 05:18:44;;;;;;;14.90;5.32;;;;;;;4.65;92.85;101148.41;5119727;28;20050;-65
2023/02/24 05:21:34;;;;;;;14.95;4.60;;;;;;;4.64;92.53;101138.69;5098938;28;20085;-64
2023/02/24 05:24:05;;;;;;;11.02;3.88;;;;;;;4.70;92.76;101140.47;5095593;28;20103;-63
2023/02/24 05:26:35;;;;;;;13.43;4.47;;;;;;;4.80;92.44;101128.38;5094123;28;20051;-63
2023/02/24 05:29:05;;;;;;;12.20;4.15;;;;;;;4.83;92.11;101127.91;5093710;28;20075;-63
2023/02/24 05:31:33;;;;;;;13.82;4.68;;;;;;;4.84;91.85;101119.59;5096716;28;20051;-63
2023/02/24 05:34:04;;;;;;;14.30;4.43;;;;;;;4.83;92.16;101111.72;5115541;28;20505;-66
2023/02/24 05:36:36;;;;;;;14.18;4.40;;;;;;;4.84;91.84;101118.78;5102644;28;20050;-63
2023/02/24 05:39:06;;;;;;;19.35;4.75;;;;;;;4.84;91.93;101116.06;5122549;27;20122;-64
2023/02/24 05:41:37;;;;;;;13.63;4.35;;;;;;;4.84;91.74;101110.69;5137595;27;20039;-63
2023/02/24 05:44:08;;;;;;;16.92;4.78;;;;;;;4.86;92.27;101103.19;5132387;27;20043;-64
2023/02/24 05:46:43;;;;;;;15.75;4.75;;;;;;;4.86;91.98;101095.91;5095852;28;20071;-65
2023/02/24 05:49:13;;;;;;;21.38;4.53;;;;;;;4.87;91.95;101094.03;5109826;28;20048;-62
2023/02/24 05:51:53;;;;;;;12.68;4.10;;;;;;;4.88;91.77;101079.47;5093177;28;20048;-63
2023/02/24 05:54:30;;;;;;;15.63;5.28;;;;;;;4.87;91.97;101086.75;5092870;28;20079;-63
2023/02/24 05:57:05;;;;;;;19.52;5.10;;;;;;;4.88;92.04;101079.47;5095901;28;20044;-65
2023/02/24 05:59:33;;;;;;;14.87;4.40;;;;;;;4.89;92.10;101079.25;5097920;28;20134;-63
2023/02/24 06:02:05;;;;;;;16.95;4.43;;;;;;;4.89;92.02;101070.34;5098295;28;20298;-63
2023/02/24 06:04:52;;;;;;;16.80;4.85;;;;;;;4.90;91.99;101066.56;5104233;28;20067;-63
2023/02/24 06:07:26;;;;;;;16.65;5.13;;;;;;;4.89;91.91;101067.63;5109010;28;20047;-64
2023/02/24 06:09:56;;;;;;;17.25;4.70;;;;;;;4.89;92.12;101067.63;5120181;28;20050;-64
2023/02/24 06:12:27;;;;;;;12.38;4.55;;;;;;;4.87;92.33;101056.22;5101288;28;20046;-64
2023/02/24 06:14:57;;;;;;;13.63;4.40;;;;;;;4.88;92.26;101060.56;5092737;28;20385;-65
2023/02/24 06:17:25;;;;;;;18.52;4.53;;;;;;;4.87;92.46;101065.16;5092741;28;20474;-63
2023/02/24 06:19:53;;;;;;;19.67;4.20;;;;;;;4.88;92.65;101057.88;5076696;28;20522;-63
2023/02/24 06:22:23;;;;;;;16.80;5.07;;;;;;;4.88;92.55;101044.38;4387101;28;10000794;-64
2023/02/24 06:24:53;;;;;;;13.77;4.25;;;;;;;4.87;92.87;101042.72;5093498;28;20048;-66
2023/02/24 06:27:23;;;;;;;15.38;5.00;;;;;;;4.89;92.45;101036.06;5093484;28;20040;-66
2023/02/24 06:29:53;;;;;;;13.02;3.97;;;;;;;4.89;92.65;101025.25;5092388;28;20056;-66
2023/02/24 06:32:23;;;;;;;15.10;4.38;;;;;;;4.86;91.83;101024.91;5093515;27;20055;-64
2023/02/24 06:34:52;;;;;;;15.75;4.00;;;;;;;4.84;92.20;101018.88;5092791;28;20044;-64
2023/02/24 06:37:21;;;;;;;18.27;4.45;;;;;;;4.84;92.05;101019.72;5079704;28;20055;-67
2023/02/24 06:39:49;;;;;;;18.05;4.93;;;;;;;4.84;92.01;101018.88;5117072;28;20043;-67
2023/02/24 06:42:17;;;;;;;18.77;4.20;;;;;;;4.83;91.67;101018.03;5128960;28;20052;-64
2023/02/24 06:44:45;;;;;;;16.33;4.10;;;;;;;4.82;91.61;101023.69;5122938;28;20051;-64
2023/02/24 06:47:16;;;;;;;11.55;3.88;;;;;;;4.81;91.58;101022.03;5115513;28;20047;-65
2023/02/24 06:49:44;;;;;;;14.90;4.15;;;;;;;4.80;91.66;101014.97;5098287;28;20073;-63
2023/02/24 06:52:17;;;;;;;17.88;4.80;;;;;;;4.80;91.46;101006.88;5104978;28;20059;-62
2023/02/24 06:54:48;;;;;;;16.42;4.75;;;;;;;4.80;91.34;101001.47;5085566;28;20044;-65
2023/02/24 06:57:16;;;;;;;15.18;3.95;;;;;;;4.82;91.12;101004.78;5079850;28;20058;-66
2023/02/24 06:59:44;;;;;;;15.27;3.88;;;;;;;4.82;91.14;101002.09;5094803;28;20113;-66
2023/02/24 07:02:12;;;;;;;14.15;4.30;;;;;;;4.82;91.17;100997.50;5105546;27;20045;-66
2023/02/24 07:04:43;;;;;;;14.10;3.88;;;;;;;4.83;90.99;100998.31;5113263;28;20043;-66
2023/02/24 07:07:13;;;;;;;12.68;4.15;;;;;;;4.84;90.96;100983.78;5109750;28;20048;-66
2023/02/24 07:09:41;;;;;;;14.02;3.85;;;;;;;4.84;90.90;100983.78;5111302;28;20108;-65
2023/02/24 07:12:11;;;;;;;11.50;3.72;;;;;;;4.85;91.20;100986.25;5097595;28;20083;-64
2023/02/24 07:14:39;;;;;;;14.27;4.63;;;;;;;4.84;91.26;100984.63;5109694;27;20131;-64
2023/02/24 07:17:07;;;;;;;15.32;4.50;;;;;;;4.86;91.10;100981.69;5114525;28;20434;-64
2023/02/24 07:19:35;;;;;;;16.63;4.32;;;;;;;4.86;90.90;100979.81;5116489;28;20038;-62
2023/02/24 07:22:03;;;;;;;15.65;4.32;;;;;;;4.85;90.67;100985.44;5115559;28;20040;-63
2023/02/24 07:24:35;;;;;;;14.20;3.83;;;;;;;4.82;90.80;100985.88;5116397;28;20039;-63
2023/02/24 07:27:09;;;;;;;14.82;3.88;;;;;;;4.82;91.34;100980.50;5113204;27;20127;-65
2023/02/24 07:29:37;;;;;;;18.02;4.10;;;;;;;4.81;91.44;100981.53;5099401;28;20046;-65
2023/02/24 07:32:07;;;;;;;17.27;4.50;;;;;;;4.80;91.72;100985.28;5081124;28;20138;-64
2023/02/24 07:34:38;;;;;;;20.35;4.95;;;;;;;4.72;91.47;100974.81;5107784;28;20101;-63
2023/02/24 07:37:08;;;;;;;16.63;4.55;;;;;;;4.70;92.37;100977.72;5062061;28;20059;-63
2023/02/24 07:39:38;;;;;;;14.25;4.53;;;;;;;4.69;92.00;100976.09;5104613;27;20036;-65
2023/02/24 07:42:08;;;;;;;14.68;3.75;;;;;;;4.65;92.27;100964.91;5116949;28;20058;-65
2023/02/24 07:44:45;;;;;;;15.90;4.00;;;;;;;4.69;92.08;100970.69;5083093;28;20404;-63
2023/02/24 07:47:14;;;;;;;18.83;4.40;;;;;;;4.69;92.19;100962.59;5107935;27;20517;-63
2023/02/24 07:49:44;;;;;;;17.17;4.47;;;;;;;4.68;92.31;100947.44;5077080;28;20047;-64
2023/02/24 07:52:11;;;;;;;15.80;4.18;;;;;;;4.76;92.24;100936.31;5078018;28;20610;-63
2023/02/24 07:54:39;;;;;;;17.20;4.25;;;;;;;4.83;91.73;100941.63;5095953;28;20048;-64
2023/02/24 07:57:12;;;;;;;14.57;3.88;;;;;;;4.86;91.48;100942.03;5094146;28;20040;-65
2023/02/24 07:59:43;;;;;;;14.93;3.60;;;;;;;4.89;91.02;100941.56;5095514;28;20048;-63
2023/02/24 08:02:12;;;;;;;14.63;4.32;;;;;;;4.84;91.17;100936.03;5095488;28;20040;-69
2023/02/24 08:04:43;;;;;;;18.85;4.50;;;;;;;4.78;91.03;100928.00;5111761;28;20055;-64
2023/02/24 08:07:13;;;;;;;15.98;4.18;;;;;;;4.73;91.38;100928.69;5095719;28;20090;-64
2023/02/24 08:12:20;;;;;;;13.98;4.43;;;;;;;4.71;91.51;100917.28;5095832;28;20056;-65
2023/02/24 08:14:51;;;;;;;15.77;4.22;;;;;;;4.74;91.67;100918.69;5095110;28;20510;-65
2023/02/24 08:17:21;;;;;;;14.68;3.67;;;;;;;4.83;91.61;100920.03;5078367;28;20385;-65
2023/02/24 08:19:59;;;;;;;19.38;4.47;;;;;;;4.88;91.24;100912.06;5102228;27;20054;-64
2023/02/24 08:22:34;;;;;;;10.73;3.45;;;;;;;4.89;90.76;100911.03;5113581;27;20059;-66
2023/02/24 08:25:06;;;;;;;13.90;4.00;;;;;;;4.91;90.91;100903.53;5115789;28;20051;-63
2023/02/24 08:27:41;;;;;;;17.15;4.57;;;;;;;4.95;90.97;100902.00;5113772;28;20047;-64
2023/02/24 08:30:22;;;;;;;15.18;4.40;;;;;;;4.95;91.04;100896.63;5112262;28;20097;-64
2023/02/24 08:32:56;;;;;;;12.75;3.42;;;;;;;4.94;91.12;100897.69;5095420;28;20079;-65
2023/02/24 08:35:34;;;;;;;14.48;3.67;;;;;;;4.96;91.29;100895.59;5111586;28;20052;-64
2023/02/24 08:38:06;;;;;;;19.25;3.95;;;;;;;5.02;91.30;100889.25;5099192;28;20048;-65
2023/02/24 08:40:38;;;;;;;11.68;3.30;;;;;;;4.99;90.81;100889.72;5116392;27;20047;-65
2023/02/24 08:43:18;;;;;;;14.18;3.85;;;;;;;4.98;91.51;100896.19;5104685;28;20048;-65
2023/02/24 08:45:59;;;;;;;17.83;3.95;;;;;;;4.98;91.54;100892.63;5110821;27;20122;-64
2023/02/24 08:48:41;;;;;;;11.98;3.45;;;;;;;4.98;91.90;100888.06;5101272;28;20089;-65
2023/02/24 08:51:14;;;;;;;12.32;3.60;;;;;;;4.97;92.47;100878.31;5067613;28;20072;-65
2023/02/24 08:53:45;;;;;;;15.52;4.30;;;;;;;4.99;93.07;100870.81;5095947;28;20051;-64
2023/02/24 08:56:22;;;;;;;13.75;3.90;;;;;;;5.03;93.23;100869.31;5103431;28;20048;-65
2023/02/24 08:59:27;;;;;;;19.52;4.38;;;;;;;5.01;93.59;100868.72;5102365;28;20036;-65
2023/02/24 09:02:17;;;;;;;14.07;3.80;;;;;;;5.01;94.07;100851.69;5095690;28;20075;-64
2023/02/24 09:04:45;;;;;;;11.23;3.50;;;;;;;5.03;94.77;100850.41;5111999;28;20097;-64
2023/02/24 09:07:15;;;;;;;13.82;4.47;;;;;;;5.10;95.43;100843.03;5113412;28;20053;-66
2023/02/24 09:09:44;;;;;;;14.27;3.67;;;;;;;5.07;94.59;100843.47;5113909;28;20036;-65
2023/02/24 09:12:20;;;;;;;17.65;4.65;;;;;;;5.00;94.70;100841.94;5113494;28;20050;-65
2023/02/24 09:14:54;;;;;;;17.95;4.07;;;;;;;4.95;95.30;100847.19;5103913;28;20101;-65
2023/02/24 09:17:38;;;;;;;15.90;4.28;;;;;;;4.88;96.77;100839.19;5069502;28;20483;-65
2023/02/24 09:23:02;;;;;;;16.48;4.30;;;;;;;5.07;96.64;100815.66;5100704;28;20062;-66
2023/02/24 09:25:40;;;;;;;14.50;3.53;;;;;;;5.07;96.15;100812.94;5093781;28;20066;-67
2023/02/24 09:28:16;;;;;;;12.85;3.78;;;;;;;5.08;96.44;100812.72;5093960;28;20535;-64
2023/02/24 09:30:51;;;;;;;13.13;3.55;;;;;;;5.10;96.53;100807.09;5108477;27;20113;-66
2023/02/24 09:33:24;;;;;;;12.40;3.50;;;;;;;5.12;97.10;100807.66;5111951;28;20063;-67
2023/02/24 09:36:08;;;;;;;11.02;3.45;;;;;;;5.12;97.20;100804.97;5095118;28;20048;-65
2023/02/24 09:44:32;;;;;;;11.73;3.30;;;;;;;5.12;97.83;100792.31;5106927;28;20063;-66
2023/02/24 09:47:07;;;;;;;13.82;4.28;;;;;;;5.19;98.40;100794.88;5112574;28;21592;-64
2023/02/24 09:49:57;;;;;;;14.00;3.63;;;;;;;5.16;98.17;100791.84;5101310;28;20096;-68
2023/02/24 09:52:40;;;;;;;16.08;3.83;;;;;;;5.19;98.23;100788.66;5093207;28;20437;-66
2023/02/24 09:55:26;;;;;;;13.38;4.07;;;;;;;5.21;98.40;100781.16;5093121;28;20058;-66
2023/02/24 10:01:32;;;;;;;13.50;3.88;;;;;;;5.22;98.02;100770.13;5111307;27;20054;-64
2023/02/24 10:04:21;;;;;;;11.88;3.53;;;;;;;5.23;97.92;100762.84;5121594;28;20445;-65
2023/02/24 10:07:13;;;;;;;14.13;3.72;;;;;;;5.28;98.07;100762.97;5119571;28;20043;-65
2023/02/24 10:09:51;;;;;;;13.70;3.60;;;;;;;5.29;97.98;100757.34;5111029;27;20047;-67
2023/02/24 10:12:22;;;;;;;12.63;3.83;;;;;;;5.32;98.13;100764.13;5115385;27;20044;-66
2023/02/24 10:15:19;;;;;;;11.80;3.90;;;;;;;5.29;98.36;100760.03;5119739;28;20058;-64
2023/02/24 10:17:54;;;;;;;12.40;3.83;;;;;;;5.28;99.11;100754.84;5104663;28;20055;-65
2023/02/24 10:20:57;;;;;;;14.23;3.92;;;;;;;5.27;99.97;100751.34;5113338;27;20136;-66
2023/02/24 10:23:44;;;;;;;12.40;3.72;;;;;;;5.23;100.00;100750.16;5121117;27;20361;-66
2023/02/24 10:26:30;;;;;;;15.20;4.28;;;;;;;5.23;99.95;100738.53;5102019;28;20043;-68
2023/02/24 10:29:28;;;;;;;12.82;3.95;;;;;;;5.21;99.68;100741.44;5104289;28;20043;-66
2023/02/24 10:32:30;;;;;;;17.00;4.82;;;;;;;5.27;100.00;100731.63;5114743;27;20057;-65
2023/02/24 10:34:58;;;;;;;13.30;3.67;;;;;;;5.28;100.00;100738.66;5111822;28;20105;-64
2023/02/24 10:37:27;;;;;;;12.85;3.78;;;;;;;5.29;100.00;100727.63;5122880;28;20104;-68
2023/02/24 10:39:58;;;;;;;12.52;3.85;;;;;;;5.35;99.97;100731.25;5110013;28;20058;-64
2023/02/24 10:42:33;;;;;;;15.50;4.00;;;;;;;5.28;100.00;100722.44;5111754;27;20048;-65
2023/02/24 10:45:12;;;;;;;14.45;4.03;;;;;;;5.25;100.00;100720.22;5096878;28;20069;-67
2023/02/24 10:47:57;;;;;;;16.83;4.22;;;;;;;5.25;100.00;100728.31;5119396;28;20047;-67
2023/02/24 10:50:33;;;;;;;16.80;4.00;;;;;;;5.23;100.00;100719.63;5097485;28;20048;-66
2023/02/24 10:58:27;;;;;;;12.77;3.90;;;;;;;5.30;100.00;100720.31;5121017;27;20040;-67
2023/02/24 11:01:11;;;;;;;14.25;3.88;;;;;;;5.31;100.00;100716.56;5102994;28;20047;-66
2023/02/24 11:04:00;;;;;;;15.35;3.75;;;;;;;5.42;100.00;100704.94;5087157;28;20048;-65
2023/02/24 11:06:51;;;;;;;14.40;4.30;;;;;;;5.42;100.00;100712.22;5102269;28;20127;-67
2023/02/24 11:18:18;;;;;;;11.40;3.80;;;;;;;5.33;100.00;100690.13;5104202;27;20052;-65
2023/02/24 11:20:50;;;;;;;17.98;4.50;;;;;;;5.30;100.00;100679.81;5118698;28;20051;-63
2023/02/24 11:23:43;;;;;;;13.55;4.10;;;;;;;5.27;100.00;100677.59;5108071;27;20047;-64
2023/02/24 11:26:25;;;;;;;15.43;4.45;;;;;;;5.25;100.00;100674.28;5087861;28;20137;-64
2023/02/24 11:29:12;;;;;;;15.85;4.82;;;;;;;5.25;100.00;100666.19;5104687;28;20207;-64
2023/02/24 11:32:01;;;;;;;16.77;4.55;;;;;;;5.21;100.00;100667.72;5106673;28;20131;-62
2023/02/24 11:34:48;;;;;;;17.88;4.95;;;;;;;5.17;100.00;100661.13;5102934;28;20050;-64
2023/02/24 11:37:36;;;;;;;19.38;4.80;;;;;;;5.18;100.00;100663.59;5110913;28;20462;-65
2023/02/24 11:40:24;;;;;;;18.50;4.80;;;;;;;5.17;100.00;100648.47;5111028;28;20091;-66
2023/02/24 11:42:52;;;;;;;17.95;4.85;;;;;;;5.19;100.00;100653.63;5125784;28;20487;-63
2023/02/24 11:45:34;;;;;;;15.18;4.30;;;;;;;5.19;100.00;100642.81;5118891;28;20063;-65
2023/02/24 11:48:26;;;;;;;15.82;4.95;;;;;;;5.22;100.00;100640.47;5110608;28;20040;-66
2023/02/24 11:50:58;;;;;;;15.40;4.47;;;;;;;5.29;100.00;100634.91;5108988;28;20048;-65
2023/02/24 11:53:40;;;;;;;14.73;4.30;;;;;;;5.32;100.00;100634.47;5094305;28;20051;-65
2023/02/24 11:56:32;;;;;;;19.02;5.68;;;;;;;5.31;100.00;100628.22;5095099;28;20056;-65
2023/02/24 11:59:11;;;;;;;13.13;4.15;;;;;;;5.33;100.00;100625.28;5100718;27;20046;-65
2023/02/24 12:01:48;;;;;;;17.75;4.57;;;;;;;5.38;100.00;100628.09;5122311;27;20044;-65
2023/02/24 12:04:31;;;;;;;12.75;4.35;;;;;;;5.37;100.00;100631.88;5116275;28;20562;-65
2023/02/24 12:07:28;;;;;;;15.25;4.78;;;;;;;5.39;100.00;100613.53;5094045;28;20044;-64
2023/02/24 12:10:04;;;;;;;16.30;5.20;;;;;;;5.29;100.00;100611.47;5101406;27;20092;-65
2023/02/24 12:13:01;;;;;;;17.25;4.97;;;;;;;5.31;100.00;100601.22;5114599;28;20047;-66
2023/02/24 12:15:34;;;;;;;11.13;4.40;;;;;;;5.33;100.00;100600.97;5115870;28;20135;-65
2023/02/24 12:18:09;;;;;;;15.52;4.68;;;;;;;5.36;100.00;100597.78;5112770;28;20050;-65
2023/02/24 12:20:54;;;;;;;14.27;4.55;;;;;;;5.34;100.00;100584.53;5110140;27;20048;-66
2023/02/24 12:23:43;;;;;;;12.35;4.75;;;;;;;5.40;100.00;100584.63;5093715;28;20048;-67
2023/02/24 12:26:16;;;;;;;13.02;4.57;;;;;;;5.41;100.00;100579.00;5101622;28;20454;-65
2023/02/24 12:29:27;;;;;;;15.30;4.43;;;;;;;5.41;100.00;100570.91;5113881;28;20570;-67
2023/02/24 12:32:19;;;;;;;13.52;4.93;;;;;;;5.47;100.00;100572.63;5103078;27;20046;-66